Time,TemperatureF,DewpointF,PressureIn,WindDirection,WindDirectionDegrees,WindSpeedMPH,WindSpeedGustMPH,Humidity,HourlyPrecipIn,Conditions,Clouds,dailyrainin,SolarRadiationWatts/m^2,SoftwareType,DateUTC
2013-05-15 00:21:00,46.0,37.0,-100.00,WSW,257,0.0,4.0,71,0.00,,,0.00,0.000000,,2013-05-15 06:21:00,
2013-05-15 00:31:00,46.0,37.0,-100.00,WSW,257,0.0,4.0,71,0.00,,,0.00,0.000000,,2013-05-15 06:31:00,
2013-05-15 00:41:00,46.0,37.0,-100.00,WSW,257,0.0,4.0,71,0.00,,,0.00,0.000000,,2013-05-15 06:41:00,
2013-05-15 00:51:00,46.0,37.0,-100.00,WSW,257,0.0,4.0,71,0.00,,,0.00,0.000000,,2013-05-15 06:51:00,
2013-05-15 01:21:00,44.0,37.0,-100.00,SSW,204,0.0,4.0,75,0.00,,,0.00,0.000000,,2013-05-15 07:21:00,
2013-05-15 01:32:00,44.0,37.0,-100.00,SSW,204,0.0,4.0,75,0.00,,,0.00,0.000000,,2013-05-15 07:32:00,
2013-05-15 01:41:00,44.0,37.0,-100.00,SSW,204,0.0,4.0,75,0.00,,,0.00,0.000000,,2013-05-15 07:41:00,
2013-05-15 01:52:00,44.0,37.0,-100.00,SSW,204,0.0,4.0,75,0.00,,,0.00,0.000000,,2013-05-15 07:52:00,
2013-05-15 02:21:00,43.0,37.0,-100.00,WSW,248,1.0,4.0,78,0.00,,,0.00,0.000000,,2013-05-15 08:21:00,
2013-05-15 02:32:00,43.0,37.0,-100.00,WSW,248,1.0,4.0,78,0.00,,,0.00,0.000000,,2013-05-15 08:32:00,
2013-05-15 02:42:00,43.0,37.0,-100.00,WSW,248,1.0,4.0,78,0.00,,,0.00,0.000000,,2013-05-15 08:42:00,
2013-05-15 02:52:00,43.0,37.0,-100.00,WSW,248,1.0,4.0,78,0.00,,,0.00,0.000000,,2013-05-15 08:52:00,
2013-05-15 03:21:00,42.0,37.0,-100.00,SSE,167,1.0,4.0,81,0.00,,,0.00,0.000000,,2013-05-15 09:21:00,
2013-05-15 03:32:00,42.0,37.0,-100.00,SSE,167,1.0,4.0,81,0.00,,,0.00,0.000000,,2013-05-15 09:32:00,
2013-05-15 03:42:00,42.0,37.0,-100.00,SSE,167,1.0,4.0,81,0.00,,,0.00,0.000000,,2013-05-15 09:42:00,
2013-05-15 03:53:00,42.0,37.0,-100.00,SSE,167,1.0,4.0,81,0.00,,,0.00,0.000000,,2013-05-15 09:53:00,
2013-05-15 04:22:00,41.0,37.0,-100.00,WSW,240,0.0,3.0,84,0.00,,,0.00,0.000000,,2013-05-15 10:22:00,
2013-05-15 04:32:00,41.0,37.0,-100.00,WSW,240,0.0,3.0,84,0.00,,,0.00,0.000000,,2013-05-15 10:32:00,
2013-05-15 04:42:00,41.0,37.0,-100.00,WSW,240,0.0,3.0,84,0.00,,,0.00,0.000000,,2013-05-15 10:42:00,
2013-05-15 04:52:00,41.0,37.0,-100.00,WSW,240,0.0,3.0,84,0.00,,,0.00,0.000000,,2013-05-15 10:52:00,
2013-05-15 05:26:00,40.0,36.0,-100.00,ESE,108,0.0,2.0,86,0.00,,,0.00,0.000000,,2013-05-15 11:26:00,
2013-05-15 05:35:00,40.0,36.0,-100.00,ESE,108,0.0,2.0,86,0.00,,,0.00,0.000000,,2013-05-15 11:35:00,
2013-05-15 05:45:00,40.0,36.0,-100.00,ESE,108,0.0,2.0,86,0.00,,,0.00,0.000000,,2013-05-15 11:45:00,
2013-05-15 05:53:00,40.0,36.0,-100.00,ESE,108,0.0,2.0,86,0.00,,,0.00,0.000000,,2013-05-15 11:53:00,
2013-05-15 06:26:00,40.0,37.0,-100.00,ESE,106,0.0,1.0,88,0.00,,,0.00,0.000000,,2013-05-15 12:26:00,
2013-05-15 06:35:00,40.0,37.0,-100.00,ESE,106,0.0,1.0,88,0.00,,,0.00,0.000000,,2013-05-15 12:35:00,
2013-05-15 06:45:00,40.0,37.0,-100.00,ESE,106,0.0,1.0,88,0.00,,,0.00,0.000000,,2013-05-15 12:45:00,
2013-05-15 06:53:00,40.0,37.0,-100.00,ESE,106,0.0,1.0,88,0.00,,,0.00,0.000000,,2013-05-15 12:53:00,
2013-05-15 07:24:00,39.0,36.0,-100.00,WSW,251,0.0,3.0,88,0.00,,,0.00,7.000000,,2013-05-15 13:24:00,
2013-05-15 07:35:00,39.0,36.0,-100.00,WSW,251,0.0,3.0,88,0.00,,,0.00,7.000000,,2013-05-15 13:35:00,
2013-05-15 07:53:00,39.0,36.0,-100.00,WSW,251,0.0,3.0,88,0.00,,,0.00,7.000000,,2013-05-15 13:53:00,
2013-05-15 08:25:00,44.0,38.0,-100.00,East,96,0.0,2.0,78,0.00,,,0.00,112.000000,,2013-05-15 14:25:00,
2013-05-15 08:36:00,44.0,38.0,-100.00,East,96,0.0,2.0,78,0.00,,,0.00,112.000000,,2013-05-15 14:36:00,
2013-05-15 08:44:00,44.0,38.0,-100.00,East,96,0.0,2.0,78,0.00,,,0.00,112.000000,,2013-05-15 14:44:00,
2013-05-15 08:52:00,44.0,38.0,-100.00,East,96,0.0,2.0,78,0.00,,,0.00,112.000000,,2013-05-15 14:52:00,
2013-05-15 09:27:00,46.0,39.0,-100.00,West,259,0.0,3.0,75,0.00,,,-99.99,94.000000,,2013-05-15 15:27:00,
2013-05-15 09:35:00,46.0,39.0,-100.00,West,259,0.0,3.0,75,0.00,,,-99.99,94.000000,,2013-05-15 15:35:00,
2013-05-15 09:45:00,46.0,39.0,-100.00,West,259,0.0,3.0,75,0.00,,,-99.99,94.000000,,2013-05-15 15:45:00,
2013-05-15 09:54:00,46.0,39.0,-100.00,West,259,0.0,3.0,75,0.00,,,-99.99,94.000000,,2013-05-15 15:54:00,
2013-05-15 10:27:00,51.0,39.0,-100.00,West,263,1.0,3.0,64,0.00,,,0.00,290.000000,,2013-05-15 16:27:00,
2013-05-15 10:34:00,51.0,39.0,-100.00,West,263,1.0,3.0,64,0.00,,,0.00,290.000000,,2013-05-15 16:34:00,
2013-05-15 10:45:00,51.0,39.0,-100.00,West,263,1.0,3.0,64,0.00,,,0.00,290.000000,,2013-05-15 16:45:00,
2013-05-15 10:52:00,51.0,39.0,-100.00,West,263,1.0,3.0,64,0.00,,,0.00,290.000000,,2013-05-15 16:52:00,
2013-05-15 11:26:00,54.0,40.0,-100.00,WNW,286,2.0,5.0,59,0.00,,,0.00,470.000000,,2013-05-15 17:26:00,
2013-05-15 11:45:00,54.0,40.0,-100.00,WNW,286,2.0,5.0,59,0.00,,,0.00,470.000000,,2013-05-15 17:45:00,
2013-05-15 11:53:00,54.0,40.0,-100.00,WNW,286,2.0,5.0,59,0.00,,,0.00,470.000000,,2013-05-15 17:53:00,
2013-05-15 12:25:00,58.0,37.0,-100.00,West,263,3.0,6.0,46,0.00,,,0.00,644.000000,,2013-05-15 18:25:00,
2013-05-15 12:35:00,58.0,37.0,-100.00,West,263,3.0,6.0,46,0.00,,,0.00,644.000000,,2013-05-15 18:35:00,
2013-05-15 12:46:00,58.0,37.0,-100.00,West,263,3.0,6.0,46,0.00,,,0.00,644.000000,,2013-05-15 18:46:00,
2013-05-15 12:54:00,58.0,37.0,-100.00,West,263,3.0,6.0,46,0.00,,,0.00,644.000000,,2013-05-15 18:54:00,
2013-05-15 13:27:00,62.0,39.0,-100.00,West,270,3.0,6.0,42,0.00,,,0.00,693.000000,,2013-05-15 19:27:00,
2013-05-15 13:53:00,62.0,39.0,-100.00,West,270,3.0,6.0,42,0.00,,,0.00,693.000000,,2013-05-15 19:53:00,
2013-05-15 14:25:00,63.0,34.0,-100.00,WNW,283,4.0,9.0,34,0.00,,,0.00,736.000000,,2013-05-15 20:25:00,
2013-05-15 14:35:00,63.0,34.0,-100.00,WNW,283,4.0,9.0,34,0.00,,,0.00,736.000000,,2013-05-15 20:35:00,
2013-05-15 14:44:00,63.0,34.0,-100.00,WNW,283,4.0,9.0,34,0.00,,,0.00,736.000000,,2013-05-15 20:44:00,
2013-05-15 14:52:00,63.0,34.0,-100.00,WNW,283,4.0,9.0,34,0.00,,,0.00,736.000000,,2013-05-15 20:52:00,
2013-05-15 15:26:00,64.0,31.0,-100.00,West,276,4.0,9.0,29,0.00,,,0.00,633.000000,,2013-05-15 21:26:00,
2013-05-15 15:38:00,64.0,31.0,-100.00,West,276,4.0,9.0,29,0.00,,,0.00,633.000000,,2013-05-15 21:38:00,
2013-05-15 15:46:00,64.0,31.0,-100.00,West,276,4.0,9.0,29,0.00,,,0.00,633.000000,,2013-05-15 21:46:00,
2013-05-15 15:54:00,64.0,31.0,-100.00,West,276,4.0,9.0,29,0.00,,,0.00,633.000000,,2013-05-15 21:54:00,
2013-05-15 16:27:00,60.0,33.0,-100.00,West,277,3.0,6.0,36,0.00,,,0.00,297.000000,,2013-05-15 22:27:00,
2013-05-15 16:36:00,60.0,33.0,-100.00,West,277,3.0,6.0,36,0.00,,,0.00,297.000000,,2013-05-15 22:36:00,
2013-05-15 16:46:00,60.0,33.0,-100.00,West,277,3.0,6.0,36,0.00,,,0.00,297.000000,,2013-05-15 22:46:00,
2013-05-15 16:53:00,60.0,33.0,-100.00,West,277,3.0,6.0,36,0.00,,,0.00,297.000000,,2013-05-15 22:53:00,
2013-05-15 17:27:00,60.0,37.0,-100.00,NNW,327,3.0,13.0,42,0.00,,,0.00,276.000000,,2013-05-15 23:27:00,
2013-05-15 17:36:00,60.0,37.0,-100.00,NNW,327,3.0,13.0,42,0.00,,,0.00,276.000000,,2013-05-15 23:36:00,
2013-05-15 17:45:00,60.0,37.0,-100.00,NNW,327,3.0,13.0,42,0.00,,,0.00,276.000000,,2013-05-15 23:45:00,
2013-05-15 17:52:00,60.0,37.0,-100.00,NNW,327,3.0,13.0,42,0.00,,,0.00,276.000000,,2013-05-15 23:52:00,
2013-05-15 18:25:00,62.0,35.0,-100.00,SW,233,3.0,8.0,36,0.00,,,0.00,475.000000,,2013-05-16 00:25:00,
2013-05-15 18:35:00,62.0,35.0,-100.00,SW,233,3.0,8.0,36,0.00,,,0.00,475.000000,,2013-05-16 00:35:00,
2013-05-15 18:45:00,62.0,35.0,-100.00,SW,233,3.0,8.0,36,0.00,,,0.00,475.000000,,2013-05-16 00:45:00,
2013-05-15 18:53:00,62.0,35.0,-100.00,SW,233,3.0,8.0,36,0.00,,,0.00,475.000000,,2013-05-16 00:53:00,
2013-05-15 19:26:00,64.0,32.0,-100.00,West,260,1.0,7.0,30,0.00,,,0.00,350.000000,,2013-05-16 01:26:00,
2013-05-15 19:35:00,64.0,32.0,-100.00,West,260,1.0,7.0,30,0.00,,,0.00,350.000000,,2013-05-16 01:35:00,
2013-05-15 19:53:00,64.0,32.0,-100.00,West,260,1.0,7.0,30,0.00,,,0.00,350.000000,,2013-05-16 01:53:00,
2013-05-15 20:26:00,60.0,34.0,-100.00,NNW,333,1.0,5.0,37,0.00,,,0.00,196.000000,,2013-05-16 02:26:00,
2013-05-15 20:36:00,60.0,34.0,-100.00,NNW,333,1.0,5.0,37,0.00,,,0.00,196.000000,,2013-05-16 02:36:00,
2013-05-15 20:43:00,60.0,34.0,-100.00,NNW,333,1.0,5.0,37,0.00,,,0.00,196.000000,,2013-05-16 02:43:00,
2013-05-15 20:51:00,60.0,34.0,-100.00,NNW,333,1.0,5.0,37,0.00,,,0.00,196.000000,,2013-05-16 02:51:00,
2013-05-15 21:24:00,55.0,35.0,-100.00,NW,316,1.0,4.0,46,0.00,,,0.00,40.000000,,2013-05-16 03:24:00,
2013-05-15 21:34:00,55.0,35.0,-100.00,NW,316,1.0,4.0,46,0.00,,,0.00,40.000000,,2013-05-16 03:34:00,
2013-05-15 21:44:00,55.0,35.0,-100.00,NW,316,1.0,4.0,46,0.00,,,0.00,40.000000,,2013-05-16 03:44:00,
2013-05-15 21:54:00,55.0,35.0,-100.00,NW,316,1.0,4.0,46,0.00,,,0.00,40.000000,,2013-05-16 03:54:00,
2013-05-15 22:23:00,50.0,38.0,-100.00,SW,215,2.0,4.0,62,0.00,,,0.00,2.000000,,2013-05-16 04:23:00,
2013-05-15 22:33:00,50.0,38.0,-100.00,SW,215,2.0,4.0,62,0.00,,,0.00,2.000000,,2013-05-16 04:33:00,
2013-05-15 22:42:00,50.0,38.0,-100.00,SW,215,2.0,4.0,62,0.00,,,0.00,2.000000,,2013-05-16 04:42:00,
2013-05-15 22:52:00,50.0,38.0,-100.00,SW,215,2.0,4.0,62,0.00,,,0.00,2.000000,,2013-05-16 04:52:00,
2013-05-15 23:22:00,48.0,37.0,-100.00,SW,232,1.0,4.0,66,0.00,,,0.00,0.000000,,2013-05-16 05:22:00,
2013-05-15 23:32:00,48.0,37.0,-100.00,SW,232,1.0,4.0,66,0.00,,,0.00,0.000000,,2013-05-16 05:32:00,
2013-05-15 23:42:00,48.0,37.0,-100.00,SW,232,1.0,4.0,66,0.00,,,0.00,0.000000,,2013-05-16 05:42:00,
2013-05-15 23:52:00,48.0,37.0,-100.00,SW,232,1.0,4.0,66,0.00,,,0.00,0.000000,,2013-05-16 05:52:00,